Main page
METAR-TAF:

METAR-TAF

Airports :

Salgado Filho International Airport

Porto Alegre, Rio Grande do Sul, Brazil

latitude: 30-00S, longitude: 051-11W, elevation: 3 m

Current weather observation

The report was made 28 minutes ago, at 13:00 UTC
Wind 4 kt from the West/Northwest
Temperature 21°C
Humidity 83%
Pressure 1013 hPa
Visibility 10 km or more
no clouds below 1500 m and no cumulonimbus

METAR: SBPA 201300Z 29004KT CAVOK 21/18 Q1013

Time: 10:28 (13:28 UTC)

Forecast

The report was made 3 hours and 58 minutes ago, at 09:30 UTC
Forecast valid from 20 at 12 UTC to 21 at 12 UTC
Wind 5 kt from the West/Southwest
Visibility 10 km or more
no clouds below 1500 m and no cumulonimbus
Becoming
from 20 at 12 UTC to 20 at 14 UTC
Wind 5 kt from the Northwest
Becoming
from 20 at 16 UTC to 20 at 18 UTC
Visibility 10 km or more
Scattered clouds at a height of 3500 ft

TAF: SBPA 200930Z 2012/2112 24005KT CAVOK TX26/2016Z TN19/2108Z BECMG 2012/2014 31005KT BECMG 2016/2018 9999 SCT035 RMK PER

Weather observations and forecasts of more than 4000 airports (METAR and TAF reports).

The available stations are represented by yellow and red dots on the map.

Hover mouse over dot to see the name of the station.

Then click to see weather observations and forecasts.

To change the map : click on the green buttons with a black cross to zoom in, on the green button with a dash to zoom out, or on the green arrows for adjacent maps.


METAR-TAF: